Erofej Pavlovic, Russia
Current Conditions -  °F | °C
As of 12:00 AM on Sunday 21 Dec 2014 (Local Time) from UHBB Reporting Station
Clear Clear  
Wind Chill: -31°   Ceiling: Unl
Heat Index: -18°   Visibility: 6mi
Dew Point: -24°   Wind: 4mph
Humidity: 76%   Direction: 240°WSW
Pressure: 30.06"   Gusts: NA
Location:  53.97°N, 121.93°E
Report Text: UHBB 201500Z 24002MPS CAVOK M28/M31 Q1018 NOSIG RMK QFE745/099436412050
Loading
Personal Weather Stations






























Interactive Weather Map New forecast layout! Learn more

10-Day Weather Forecast

Advertisements
Track Severe Weather on mobile